Time;durP1;ratioP1;P1;durP2;ratioP2;P2;SDS_P1;SDS_P2;PMS_P1;PMS_P2;Temp;Humidity;BMP_temperature;BMP_pressure;BME280_temperature;BME280_humidity;BME280_pressure;Samples;Min_cycle;Max_cycle;Signal;HPM_P1;HPM_P2
2021/07/23 00:01:35;;;;;;;;;;;;;;;;;;5019738;28;1107;-54
2021/07/23 00:04:00;;;;;;;;;;;;;;;;;;5021353;28;1719;-55
2021/07/23 00:06:25;;;;;;;;;;;;;;;;;;5022467;28;1141;-54
2021/07/23 00:08:50;;;;;;;;;;;;;;;;;;5020031;28;1587;-55
2021/07/23 00:11:15;;;;;;;;;;;;;;;;;;5021129;28;1573;-55
2021/07/23 00:13:41;;;;;;;;;;;;;;;;;;5019255;28;1973;-55
2021/07/23 00:16:06;;;;;;;;;;;;;;;;;;5023519;28;1110;-55
2021/07/23 00:18:31;;;;;;;;;;;;;;;;;;5018727;28;1754;-55
2021/07/23 00:20:56;;;;;;;;;;;;;;;;;;5024537;28;995;-53
2021/07/23 00:23:21;;;;;;;;;;;;;;;;;;5018785;28;1394;-55
2021/07/23 00:25:47;;;;;;;;;;;;;;;;;;5021644;28;1549;-54
2021/07/23 00:28:12;;;;;;;;;;;;;;;;;;5020199;28;1168;-54
2021/07/23 00:30:37;;;;;;;;;;;;;;;;;;5024151;28;1267;-55
2021/07/23 00:33:02;;;;;;;;;;;;;;;;;;5022473;28;1382;-53
2021/07/23 00:35:28;;;;;;;;;;;;;;;;;;5019824;28;1906;-54
2021/07/23 00:37:53;;;;;;;;;;;;;;;;;;5019222;28;1082;-54
2021/07/23 00:40:19;;;;;;;;;;;;;;;;;;5019086;28;1616;-55
2021/07/23 00:42:44;;;;;;;;;;;;;;;;;;5020726;28;1291;-55
2021/07/23 00:45:09;;;;;;;;;;;;;;;;;;5021963;28;1307;-54
2021/07/23 00:47:38;;;;;;;;;;;;;;;;;;5022006;28;1406;-54
2021/07/23 00:50:06;;;;;;;;;;;;;;;;;;5024987;28;1581;-55
2021/07/23 00:52:32;;;;;;;;;;;;;;;;;;5018706;28;1273;-54
2021/07/23 00:54:57;;;;;;;;;;;;;;;;;;5020375;28;1906;-55
2021/07/23 00:57:22;;;;;;;;;;;;;;;;;;5022138;28;1382;-54
2021/07/23 00:59:47;;;;;;;;;;;;;;;;;;5015321;28;1788;-55
2021/07/23 01:02:13;;;;;;;;;;;;;;;;;;5018287;28;1537;-54
2021/07/23 01:04:39;;;;;;;;;;;;;;;;;;5018797;28;1217;-53
2021/07/23 01:07:05;;;;;;;;;;;;;;;;;;5021703;28;1383;-54
2021/07/23 01:09:30;;;;;;;;;;;;;;;;;;5010308;28;1193;-54
2021/07/23 01:11:55;;;;;;;;;;;;;;;;;;5018813;28;1564;-54
2021/07/23 01:14:21;;;;;;;;;;;;;;;;;;5020412;28;1906;-53
2021/07/23 01:16:46;;;;;;;;;;;;;;;;;;5024614;28;1177;-55
2021/07/23 01:19:11;;;;;;;;;;;;;;;;;;5010739;28;1615;-55
2021/07/23 01:21:37;;;;;;;;;;;;;;;;;;5021531;28;1815;-54
2021/07/23 01:24:02;;;;;;;;;;;;;;;;;;5009330;28;1383;-55
2021/07/23 01:26:27;;;;;;;;;;;;;;;;;;5020125;28;1585;-54
2021/07/23 01:28:52;;;;;;;;;;;;;;;;;;5009241;28;1401;-54
2021/07/23 01:31:18;;;;;;;;;;;;;;;;;;5020399;28;1217;-54
2021/07/23 01:33:43;;;;;;;;;;;;;;;;;;5021290;28;1969;-53
2021/07/23 01:36:08;;;;;;;;;;;;;;;;;;5024285;28;1248;-55
2021/07/23 01:38:33;;;;;;;;;;;;;;;;;;5023412;28;1386;-53
2021/07/23 01:40:59;;;;;;;;;;;;;;;;;;5012692;28;1543;-55
2021/07/23 01:43:24;;;;;;;;;;;;;;;;;;5022961;28;1535;-53
2021/07/23 01:45:50;;;;;;;;;;;;;;;;;;5025003;28;1189;-54
2021/07/23 01:48:15;;;;;;;;;;;;;;;;;;5022567;28;1214;-54
2021/07/23 01:50:40;;;;;;;;;;;;;;;;;;5025150;28;1565;-54
2021/07/23 01:53:05;;;;;;;;;;;;;;;;;;5024947;28;1573;-55
2021/07/23 01:55:31;;;;;;;;;;;;;;;;;;5025345;28;1906;-54
2021/07/23 01:57:56;;;;;;;;;;;;;;;;;;5024327;28;1310;-53
2021/07/23 02:00:21;;;;;;;;;;;;;;;;;;5025403;28;1133;-54
2021/07/23 02:02:46;;;;;;;;;;;;;;;;;;5021390;28;1322;-55
2021/07/23 02:05:11;;;;;;;;;;;;;;;;;;5024881;28;1597;-53
2021/07/23 02:07:37;;;;;;;;;;;;;;;;;;5026571;28;1150;-54
2021/07/23 02:10:03;;;;;;;;;;;;;;;;;;5022654;28;1590;-53
2021/07/23 02:12:28;;;;;;;;;;;;;;;;;;5010150;28;1380;-53
2021/07/23 02:14:54;;;;;;;;;;;;;;;;;;5028014;28;1910;-53
2021/07/23 02:17:19;;;;;;;;;;;;;;;;;;5020962;28;1482;-52
2021/07/23 02:19:44;;;;;;;;;;;;;;;;;;5027350;28;1612;-55
2021/07/23 02:22:09;;;;;;;;;;;;;;;;;;5021693;28;1244;-55
2021/07/23 02:24:34;;;;;;;;;;;;;;;;;;5024207;28;1636;-51
2021/07/23 02:27:00;;;;;;;;;;;;;;;;;;5023308;28;1046;-54
2021/07/23 02:29:25;;;;;;;;;;;;;;;;;;5023967;28;1639;-54
2021/07/23 02:31:50;;;;;;;;;;;;;;;;;;5024301;28;1010;-55
2021/07/23 02:34:15;;;;;;;;;;;;;;;;;;5022068;28;1981;-56
2021/07/23 02:36:40;;;;;;;;;;;;;;;;;;5022314;28;1508;-55
2021/07/23 02:39:06;;;;;;;;;;;;;;;;;;5025238;28;1142;-54
2021/07/23 02:41:31;;;;;;;;;;;;;;;;;;5022374;28;1589;-55
2021/07/23 02:43:56;;;;;;;;;;;;;;;;;;5021714;28;1367;-55
2021/07/23 02:46:21;;;;;;;;;;;;;;;;;;5021171;28;1525;-53
2021/07/23 02:48:46;;;;;;;;;;;;;;;;;;5025407;28;1178;-54
2021/07/23 02:51:12;;;;;;;;;;;;;;;;;;5023368;28;1342;-53
2021/07/23 02:53:37;;;;;;;;;;;;;;;;;;5022244;28;1602;-53
2021/07/23 02:56:02;;;;;;;;;;;;;;;;;;5023620;28;1906;-54
2021/07/23 02:58:27;;;;;;;;;;;;;;;;;;5025130;28;1613;-54
2021/07/23 03:00:52;;;;;;;;;;;;;;;;;;5026466;28;975;-54
2021/07/23 03:03:17;;;;;;;;;;;;;;;;;;5023861;28;1973;-55
2021/07/23 03:05:43;;;;;;;;;;;;;;;;;;5024421;28;1318;-54
2021/07/23 03:08:09;;;;;;;;;;;;;;;;;;5023244;28;1398;-54
2021/07/23 03:10:34;;;;;;;;;;;;;;;;;;5022675;28;1535;-55
2021/07/23 03:12:59;;;;;;;;;;;;;;;;;;5022153;28;1286;-55
2021/07/23 03:15:24;;;;;;;;;;;;;;;;;;5022652;28;1977;-53
2021/07/23 03:17:50;;;;;;;;;;;;;;;;;;5020744;28;1236;-55
2021/07/23 03:20:15;;;;;;;;;;;;;;;;;;5021382;28;2126;-55
2021/07/23 03:22:40;;;;;;;;;;;;;;;;;;5024030;28;1433;-53
2021/07/23 03:25:06;;;;;;;;;;;;;;;;;;5024400;28;1681;-55
2021/07/23 03:27:31;;;;;;;;;;;;;;;;;;5021600;28;1454;-54
2021/07/23 03:29:56;;;;;;;;;;;;;;;;;;5025521;28;1553;-56
2021/07/23 03:32:22;;;;;;;;;;;;;;;;;;5019565;28;1466;-55
2021/07/23 03:34:47;;;;;;;;;;;;;;;;;;5026212;28;2022;-55
2021/07/23 03:37:12;;;;;;;;;;;;;;;;;;5023982;28;1267;-54
2021/07/23 03:39:37;;;;;;;;;;;;;;;;;;5020468;28;1592;-55
2021/07/23 03:42:02;;;;;;;;;;;;;;;;;;5025089;28;1542;-54
2021/07/23 03:44:28;;;;;;;;;;;;;;;;;;5024560;28;1277;-55
2021/07/23 03:46:53;;;;;;;;;;;;;;;;;;5018875;28;1326;-55
2021/07/23 03:49:18;;;;;;;;;;;;;;;;;;5019743;28;1566;-55
2021/07/23 03:51:43;;;;;;;;;;;;;;;;;;5020590;28;1378;-55
2021/07/23 03:54:08;;;;;;;;;;;;;;;;;;5024453;28;1902;-55
2021/07/23 03:56:33;;;;;;;;;;;;;;;;;;5019817;28;1642;-55
2021/07/23 03:59:01;;;;;;;;;;;;;;;;;;5022539;28;1473;-55
2021/07/23 04:01:27;;;;;;;;;;;;;;;;;;5022024;28;1249;-55
2021/07/23 04:03:52;;;;;;;;;;;;;;;;;;5023280;28;1750;-55
2021/07/23 04:06:17;;;;;;;;;;;;;;;;;;5021059;28;1586;-55
2021/07/23 04:08:42;;;;;;;;;;;;;;;;;;5021833;28;1349;-54
2021/07/23 04:11:16;;;;;;;;;;;;;;;;;;5022254;28;1637;-55
2021/07/23 04:13:41;;;;;;;;;;;;;;;;;;5020299;28;1465;-55
2021/07/23 04:16:06;;;;;;;;;;;;;;;;;;5022178;28;1910;-55
2021/07/23 04:18:31;;;;;;;;;;;;;;;;;;5021221;28;1629;-55
2021/07/23 04:20:57;;;;;;;;;;;;;;;;;;5024496;28;1565;-55
2021/07/23 04:23:22;;;;;;;;;;;;;;;;;;5021195;28;1543;-55
2021/07/23 04:25:47;;;;;;;;;;;;;;;;;;5021253;28;1574;-55
2021/07/23 04:28:12;;;;;;;;;;;;;;;;;;5021374;28;1251;-55
2021/07/23 04:30:37;;;;;;;;;;;;;;;;;;5022728;28;1154;-56
2021/07/23 04:33:03;;;;;;;;;;;;;;;;;;5022128;28;1406;-55
2021/07/23 04:35:28;;;;;;;;;;;;;;;;;;4961259;28;1951;-55
2021/07/23 04:37:53;;;;;;;;;;;;;;;;;;5019586;28;1113;-54
2021/07/23 04:40:18;;;;;;;;;;;;;;;;;;5019536;28;1554;-55
2021/07/23 04:42:43;;;;;;;;;;;;;;;;;;5022179;28;1310;-55
2021/07/23 04:45:09;;;;;;;;;;;;;;;;;;5025816;28;1158;-54
2021/07/23 04:47:34;;;;;;;;;;;;;;;;;;5021412;28;1161;-55
2021/07/23 04:50:01;;;;;;;;;;;;;;;;;;5021327;28;1710;-55
2021/07/23 04:52:26;;;;;;;;;;;;;;;;;;5022083;28;1680;-55
2021/07/23 04:54:51;;;;;;;;;;;;;;;;;;5015799;28;1977;-55
2021/07/23 04:57:21;;;;;;;;;;;;;;;;;;5023410;28;1406;-55
2021/07/23 04:59:46;;;;;;;;;;;;;;;;;;5022343;28;1161;-55
2021/07/23 05:02:11;;;;;;;;;;;;;;;;;;5024558;28;1256;-55
2021/07/23 05:04:36;;;;;;;;;;;;;;;;;;5021057;28;1548;-54
2021/07/23 05:07:02;;;;;;;;;;;;;;;;;;5019330;28;1248;-55
2021/07/23 05:09:27;;;;;;;;;;;;;;;;;;5019578;28;1221;-55
2021/07/23 05:11:52;;;;;;;;;;;;;;;;;;5022955;28;1536;-55
2021/07/23 05:14:17;;;;;;;;;;;;;;;;;;5026264;28;2331;-55
2021/07/23 05:16:42;;;;;;;;;;;;;;;;;;5022158;28;1748;-54
2021/07/23 05:19:08;;;;;;;;;;;;;;;;;;5012233;28;1063;-55
2021/07/23 05:21:34;;;;;;;;;;;;;;;;;;5024089;28;1194;-56
2021/07/23 05:24:03;;;;;;;;;;;;;;;;;;5027540;28;1294;-55
2021/07/23 05:26:29;;;;;;;;;;;;;;;;;;5024721;28;1620;-55
2021/07/23 05:28:55;;;;;;;;;;;;;;;;;;5024641;28;1414;-55
2021/07/23 05:31:20;;;;;;;;;;;;;;;;;;5023350;28;1173;-55
2021/07/23 05:33:45;;;;;;;;;;;;;;;;;;5023713;28;1350;-53
2021/07/23 05:36:10;;;;;;;;;;;;;;;;;;5028091;28;1957;-55
2021/07/23 05:38:35;;;;;;;;;;;;;;;;;;5022339;28;1169;-55
2021/07/23 05:41:07;;;;;;;;;;;;;;;;;;5025051;28;1652;-54
2021/07/23 05:43:32;;;;;;;;;;;;;;;;;;5026171;28;1385;-53
2021/07/23 05:45:57;;;;;;;;;;;;;;;;;;5026463;28;1146;-56
2021/07/23 05:48:23;;;;;;;;;;;;;;;;;;5024227;28;1367;-56
2021/07/23 05:50:48;;;;;;;;;;;;;;;;;;5024763;28;1578;-55
2021/07/23 05:53:13;;;;;;;;;;;;;;;;;;5023695;28;1375;-53
2021/07/23 05:55:38;;;;;;;;;;;;;;;;;;5025424;28;1965;-55
2021/07/23 05:58:03;;;;;;;;;;;;;;;;;;5023500;28;1370;-55
2021/07/23 06:00:28;;;;;;;;;;;;;;;;;;5027123;28;1616;-55
2021/07/23 06:02:54;;;;;;;;;;;;;;;;;;5023596;28;1663;-56
2021/07/23 06:05:19;;;;;;;;;;;;;;;;;;5024734;28;1159;-55
2021/07/23 06:07:44;;;;;;;;;;;;;;;;;;5024257;28;1437;-55
2021/07/23 06:10:09;;;;;;;;;;;;;;;;;;5024252;28;1562;-53
2021/07/23 06:12:35;;;;;;;;;;;;;;;;;;5022393;28;1314;-53
2021/07/23 06:15:00;;;;;;;;;;;;;;;;;;5014056;28;1962;-53
2021/07/23 06:17:25;;;;;;;;;;;;;;;;;;5020886;28;1414;-54
2021/07/23 06:19:50;;;;;;;;;;;;;;;;;;5026182;28;1574;-53
2021/07/23 06:22:17;;;;;;;;;;;;;;;;;;5020846;28;1286;-53
2021/07/23 06:24:43;;;;;;;;;;;;;;;;;;5024932;28;1482;-53
2021/07/23 06:27:09;;;;;;;;;;;;;;;;;;5025514;28;1145;-53
2021/07/23 06:29:34;;;;;;;;;;;;;;;;;;5023879;28;1298;-52
2021/07/23 06:31:59;;;;;;;;;;;;;;;;;;5024378;28;1189;-51
2021/07/23 06:34:24;;;;;;;;;;;;;;;;;;5022861;28;1962;-53
2021/07/23 06:36:50;;;;;;;;;;;;;;;;;;5021748;28;1379;-51
2021/07/23 06:39:15;;;;;;;;;;;;;;;;;;5026067;28;1197;-54
2021/07/23 06:41:40;;;;;;;;;;;;;;;;;;5022936;28;2012;-53
2021/07/23 06:44:05;;;;;;;;;;;;;;;;;;5024482;28;1295;-54
2021/07/23 06:46:30;;;;;;;;;;;;;;;;;;5022581;28;1197;-55
2021/07/23 06:48:55;;;;;;;;;;;;;;;;;;5022624;28;1361;-56
2021/07/23 06:51:21;;;;;;;;;;;;;;;;;;5024443;28;1582;-57
2021/07/23 06:53:46;;;;;;;;;;;;;;;;;;5020770;28;1373;-55
2021/07/23 06:56:11;;;;;;;;;;;;;;;;;;5023852;28;1894;-53
2021/07/23 06:58:37;;;;;;;;;;;;;;;;;;5022883;28;1465;-56
2021/07/23 07:01:06;;;;;;;;;;;;;;;;;;5024736;28;1153;-54
2021/07/23 07:03:31;;;;;;;;;;;;;;;;;;5021891;28;1703;-55
2021/07/23 07:05:58;;;;;;;;;;;;;;;;;;5024856;28;1153;-54
2021/07/23 07:08:23;;;;;;;;;;;;;;;;;;5024858;28;1142;-54
2021/07/23 07:10:48;;;;;;;;;;;;;;;;;;5024865;28;1569;-56
2021/07/23 07:13:14;;;;;;;;;;;;;;;;;;5018519;28;1614;-55
2021/07/23 07:15:39;;;;;;;;;;;;;;;;;;5023986;28;1906;-54
2021/07/23 07:18:04;;;;;;;;;;;;;;;;;;5023311;28;1189;-56
2021/07/23 07:20:31;;;;;;;;;;;;;;;;;;5024260;28;1352;-54
2021/07/23 07:22:57;;;;;;;;;;;;;;;;;;5020991;28;1589;-56
2021/07/23 07:25:22;;;;;;;;;;;;;;;;;;5023833;28;1613;-54
2021/07/23 07:27:47;;;;;;;;;;;;;;;;;;5024086;28;1240;-53
2021/07/23 07:30:13;;;;;;;;;;;;;;;;;;5021518;28;2091;-54
2021/07/23 07:32:38;;;;;;;;;;;;;;;;;;5023571;28;1304;-56
2021/07/23 07:35:03;;;;;;;;;;;;;;;;;;5020909;28;1969;-56
2021/07/23 07:37:29;;;;;;;;;;;;;;;;;;5021080;28;1550;-53
2021/07/23 07:39:55;;;;;;;;;;;;;;;;;;5023676;28;1580;-55
2021/07/23 07:42:20;;;;;;;;;;;;;;;;;;5025831;28;1276;-55
2021/07/23 07:44:46;;;;;;;;;;;;;;;;;;5023086;28;1198;-56
2021/07/23 07:47:11;;;;;;;;;;;;;;;;;;5022774;28;1184;-55
2021/07/23 07:49:36;;;;;;;;;;;;;;;;;;4998336;28;1680;-54
2021/07/23 07:52:01;;;;;;;;;;;;;;;;;;5024283;28;1343;-56
2021/07/23 07:54:27;;;;;;;;;;;;;;;;;;5023141;28;1977;-54
2021/07/23 07:56:54;;;;;;;;;;;;;;;;;;5022659;28;1641;-55
2021/07/23 07:59:19;;;;;;;;;;;;;;;;;;5024052;28;1252;-57
2021/07/23 08:01:44;;;;;;;;;;;;;;;;;;5024248;28;1044;-55
2021/07/23 08:04:11;;;;;;;;;;;;;;;;;;5023044;28;1577;-56
2021/07/23 08:06:38;;;;;;;;;;;;;;;;;;5022282;28;1510;-55
2021/07/23 08:09:08;;;;;;;;;;;;;;;;;;5023702;28;1139;-55
2021/07/23 08:11:34;;;;;;;;;;;;;;;;;;5023438;28;1565;-55
2021/07/23 08:13:59;;;;;;;;;;;;;;;;;;5022831;28;1914;-55
2021/07/23 08:16:24;;;;;;;;;;;;;;;;;;5022798;28;1083;-54
2021/07/23 08:18:49;;;;;;;;;;;;;;;;;;5021210;28;1529;-54
2021/07/23 08:21:15;;;;;;;;;;;;;;;;;;5023097;28;1204;-55
2021/07/23 08:23:40;;;;;;;;;;;;;;;;;;5022356;28;1370;-54
2021/07/23 08:26:05;;;;;;;;;;;;;;;;;;5020303;28;1616;-53
2021/07/23 08:28:34;;;;;;;;;;;;;;;;;;5020987;28;1772;-55
2021/07/23 08:30:59;;;;;;;;;;;;;;;;;;5024975;28;1276;-56
2021/07/23 08:33:24;;;;;;;;;;;;;;;;;;5023496;28;1373;-55
2021/07/23 08:35:49;;;;;;;;;;;;;;;;;;5022674;28;1960;-55
2021/07/23 08:38:15;;;;;;;;;;;;;;;;;;5021451;28;1618;-55
2021/07/23 08:40:40;;;;;;;;;;;;;;;;;;5022491;28;1490;-57
2021/07/23 08:43:05;;;;;;;;;;;;;;;;;;5022246;28;1692;-56
2021/07/23 08:45:30;;;;;;;;;;;;;;;;;;5021036;28;1478;-54
2021/07/23 08:47:56;;;;;;;;;;;;;;;;;;5022387;28;1652;-56
2021/07/23 08:50:22;;;;;;;;;;;;;;;;;;5007112;28;998;-56
2021/07/23 08:52:48;;;;;;;;;;;;;;;;;;5022435;28;1577;-56
2021/07/23 08:55:14;;;;;;;;;;;;;;;;;;5020640;28;1957;-56
2021/07/23 08:57:39;;;;;;;;;;;;;;;;;;5021157;28;1475;-55
2021/07/23 09:00:11;;;;;;;;;;;;;;;;;;5021631;28;1834;-56
2021/07/23 09:02:52;;;;;;;;;;;;;;;;;;5021662;28;1578;-56
2021/07/23 09:05:18;;;;;;;;;;;;;;;;;;5021984;28;1082;-56
2021/07/23 09:07:43;;;;;;;;;;;;;;;;;;5018440;28;1792;-53
2021/07/23 09:10:08;;;;;;;;;;;;;;;;;;5020609;28;1804;-56
2021/07/23 09:12:47;;;;;;;;;;;;;;;;;;5019534;28;1517;-55
2021/07/23 09:15:17;;;;;;;;;;;;;;;;;;5010853;28;1906;-55
2021/07/23 09:17:42;;;;;;;;;;;;;;;;;;5020840;28;1394;-53
2021/07/23 09:20:08;;;;;;;;;;;;;;;;;;5022741;28;1530;-55
2021/07/23 09:22:46;;;;;;;;;;;;;;;;;;5019824;28;1574;-55
2021/07/23 09:25:11;;;;;;;;;;;;;;;;;;5041170;23;1645;-96
2021/07/23 09:27:37;;;;;;;;;;;;;;;;;;5011874;28;1252;-93
2021/07/23 09:30:05;;;;;;;;;;;;;;;;;;5011332;28;1461;-94
2021/07/23 09:32:30;;;;;;;;;;;;;;;;;;5029561;28;1221;-94
2021/07/23 09:35:11;;;;;;;;;;;;;;;;;;5026713;28;1950;-93
2021/07/23 09:37:55;;;;;;;;;;;;;;;;;;5029118;28;1265;-94
2021/07/23 09:40:21;;;;;;;;;;;;;;;;;;5028088;28;1597;-94
2021/07/23 09:42:58;;;;;;;;;;;;;;;;;;5009842;28;1383;-94
2021/07/23 09:45:27;;;;;;;;;;;;;;;;;;5014763;28;1320;-96
2021/07/23 09:47:52;;;;;;;;;;;;;;;;;;4994278;28;1552;-94
2021/07/23 09:50:17;;;;;;;;;;;;;;;;;;5029344;28;1118;-93
2021/07/23 09:52:43;;;;;;;;;;;;;;;;;;4994341;28;1261;-94
2021/07/23 09:55:08;;;;;;;;;;;;;;;;;;5010896;28;1965;-94
2021/07/23 09:57:33;;;;;;;;;;;;;;;;;;5013468;28;1628;-94
2021/07/23 10:00:01;;;;;;;;;;;;;;;;;;5015302;28;1213;-94
2021/07/23 10:02:27;;;;;;;;;;;;;;;;;;5037285;28;1123;-93
2021/07/23 10:05:02;;;;;;;;;;;;;;;;;;5028185;28;1606;-95
2021/07/23 10:07:29;;;;;;;;;;;;;;;;;;5032614;28;1220;-93
2021/07/23 10:09:54;;;;;;;;;;;;;;;;;;5013247;28;1657;-93
2021/07/23 10:12:20;;;;;;;;;;;;;;;;;;4996245;28;1287;-94
2021/07/23 10:14:45;;;;;;;;;;;;;;;;;;5014625;28;1922;-93
2021/07/23 10:17:11;;;;;;;;;;;;;;;;;;5014492;28;1289;-93
2021/07/23 10:19:36;;;;;;;;;;;;;;;;;;5014677;28;1570;-94
2021/07/23 10:22:01;;;;;;;;;;;;;;;;;;5014096;28;1269;-94
2021/07/23 10:24:31;;;;;;;;;;;;;;;;;;5014953;28;1186;-94
2021/07/23 10:26:56;;;;;;;;;;;;;;;;;;4997409;28;1557;-93
2021/07/23 10:29:45;;;;;;;;;;;;;;;;;;5032817;28;1181;-94
2021/07/23 10:32:29;;;;;;;;;;;;;;;;;;5010034;28;1344;-94
2021/07/23 10:34:55;;;;;;;;;;;;;;;;;;5029842;28;1906;-94
2021/07/23 10:37:47;;;;;;;;;;;;;;;;;;5006800;28;1743;-94
2021/07/23 10:40:12;;;;;;;;;;;;;;;;;;5028551;28;1562;-93
2021/07/23 10:42:38;;;;;;;;;;;;;;;;;;5031273;28;1530;-95
2021/07/23 10:45:04;;;;;;;;;;;;;;;;;;5014761;28;1154;-94
2021/07/23 10:47:33;;;;;;;;;;;;;;;;;;5011205;28;1553;-94
2021/07/23 10:49:58;;;;;;;;;;;;;;;;;;5012584;28;1103;-94
2021/07/23 10:52:27;;;;;;;;;;;;;;;;;;5031796;28;1170;-93
2021/07/23 10:55:07;;;;;;;;;;;;;;;;;;5027910;28;1952;-94
2021/07/23 10:57:33;;;;;;;;;;;;;;;;;;5030927;28;1263;-95
2021/07/23 11:00:00;;;;;;;;;;;;;;;;;;5012509;28;1467;-94
2021/07/23 11:02:31;;;;;;;;;;;;;;;;;;5031372;28;1205;-94
2021/07/23 11:05:23;;;;;;;;;;;;;;;;;;5029981;28;1534;-93
2021/07/23 11:07:48;;;;;;;;;;;;;;;;;;5025436;28;1729;-95
2021/07/23 11:10:16;;;;;;;;;;;;;;;;;;5031166;28;1499;-95
2021/07/23 11:12:42;;;;;;;;;;;;;;;;;;5027648;28;1306;-94
2021/07/23 11:15:08;;;;;;;;;;;;;;;;;;5030999;28;1902;-93
2021/07/23 11:17:33;;;;;;;;;;;;;;;;;;5030545;28;1357;-94
2021/07/23 11:19:59;;;;;;;;;;;;;;;;;;5019761;28;1232;-94
2021/07/23 11:22:26;;;;;;;;;;;;;;;;;;5030605;28;1169;-93
2021/07/23 11:24:55;;;;;;;;;;;;;;;;;;5011708;28;1776;-93
2021/07/23 11:27:24;;;;;;;;;;;;;;;;;;5012181;28;1353;-93
2021/07/23 11:29:49;;;;;;;;;;;;;;;;;;5011660;28;1308;-92
2021/07/23 11:32:17;;;;;;;;;;;;;;;;;;5030104;28;1166;-92
2021/07/23 11:34:44;;;;;;;;;;;;;;;;;;5028534;28;1914;-92
2021/07/23 11:37:25;;;;;;;;;;;;;;;;;;5013228;28;1318;-94
2021/07/23 11:39:54;;;;;;;;;;;;;;;;;;5029231;28;1657;-92
2021/07/23 11:42:19;;;;;;;;;;;;;;;;;;5018008;28;1579;-93
2021/07/23 11:44:51;;;;;;;;;;;;;;;;;;5012297;28;1162;-92
2021/07/23 11:47:23;;;;;;;;;;;;;;;;;;5028554;28;1322;-93
2021/07/23 11:49:49;;;;;;;;;;;;;;;;;;5012960;28;1590;-92
2021/07/23 11:52:18;;;;;;;;;;;;;;;;;;5011275;28;1442;-93
2021/07/23 11:54:43;;;;;;;;;;;;;;;;;;5026978;28;1910;-94
2021/07/23 11:57:08;;;;;;;;;;;;;;;;;;5011162;28;1435;-92
2021/07/23 11:59:37;;;;;;;;;;;;;;;;;;5012915;28;1340;-93
2021/07/23 12:02:08;;;;;;;;;;;;;;;;;;5026568;28;1566;-93
2021/07/23 12:04:33;;;;;;;;;;;;;;;;;;4991800;28;1604;-92
2021/07/23 12:06:58;;;;;;;;;;;;;;;;;;5023644;28;1664;-93
2021/07/23 12:09:24;;;;;;;;;;;;;;;;;;5029065;28;1519;-93
2021/07/23 12:11:49;;;;;;;;;;;;;;;;;;5015269;28;1551;-93
2021/07/23 12:14:15;;;;;;;;;;;;;;;;;;4992902;28;1973;-92
2021/07/23 12:16:41;;;;;;;;;;;;;;;;;;5029465;28;1360;-93
2021/07/23 12:19:10;;;;;;;;;;;;;;;;;;5027145;28;1656;-92
2021/07/23 12:21:36;;;;;;;;;;;;;;;;;;5031080;28;1081;-93
2021/07/23 12:24:05;;;;;;;;;;;;;;;;;;5029773;28;1220;-92
2021/07/23 12:26:31;;;;;;;;;;;;;;;;;;5027052;23;3650;-52
2021/07/23 12:28:56;;;;;;;;;;;;;;;;;;5040764;28;1108;-53
2021/07/23 12:31:21;;;;;;;;;;;;;;;;;;5038018;28;1428;-51
2021/07/23 12:34:03;;;;;;;;;;;;;;;;;;5037151;28;1628;-52
2021/07/23 12:36:29;;;;;;;;;;;;;;;;;;5039211;28;1980;-52
2021/07/23 12:39:03;;;;;;;;;;;;;;;;;;5041097;28;1029;-53
2021/07/23 12:41:28;;;;;;;;;;;;;;;;;;5036323;28;1633;-54
2021/07/23 12:44:04;;;;;;;;;;;;;;;;;;5039171;28;1405;-53
2021/07/23 12:46:29;;;;;;;;;;;;;;;;;;5037789;28;952;-53
2021/07/23 12:48:55;;;;;;;;;;;;;;;;;;5022115;28;1279;-51
2021/07/23 12:51:24;;;;;;;;;;;;;;;;;;5038064;28;1546;-52
2021/07/23 12:53:55;;;;;;;;;;;;;;;;;;5019136;28;1462;-52
2021/07/23 12:56:20;;;;;;;;;;;;;;;;;;5037058;28;1965;-53
2021/07/23 12:58:46;;;;;;;;;;;;;;;;;;5021714;28;1348;-53
2021/07/23 13:01:14;;;;;;;;;;;;;;;;;;5038165;28;1472;-52
2021/07/23 13:03:39;;;;;;;;;;;;;;;;;;5035105;28;2112;-53
2021/07/23 13:06:05;;;;;;;;;;;;;;;;;;5039213;28;1224;-51
2021/07/23 13:08:30;;;;;;;;;;;;;;;;;;5039931;28;1156;-54
2021/07/23 13:10:55;;;;;;;;;;;;;;;;;;5035286;28;1628;-52
2021/07/23 13:13:20;;;;;;;;;;;;;;;;;;5038074;28;1343;-53
2021/07/23 13:15:46;;;;;;;;;;;;;;;;;;5038190;28;1959;-53
2021/07/23 13:18:11;;;;;;;;;;;;;;;;;;5039438;28;1377;-53
2021/07/23 13:20:36;;;;;;;;;;;;;;;;;;5036852;28;1610;-51
2021/07/23 13:23:01;;;;;;;;;;;;;;;;;;5039197;28;1114;-53
2021/07/23 13:25:26;;;;;;;;;;;;;;;;;;5038073;28;1641;-54
2021/07/23 13:27:51;;;;;;;;;;;;;;;;;;5039483;28;1310;-53
2021/07/23 13:30:19;;;;;;;;;;;;;;;;;;5039761;28;1348;-52
2021/07/23 13:32:45;;;;;;;;;;;;;;;;;;5039918;28;1283;-52
2021/07/23 13:35:11;;;;;;;;;;;;;;;;;;5040760;28;1902;-53
2021/07/23 13:37:36;;;;;;;;;;;;;;;;;;5041616;28;1292;-53
2021/07/23 13:40:08;;;;;;;;;;;;;;;;;;5023921;28;1685;-51
2021/07/23 13:42:34;;;;;;;;;;;;;;;;;;5041836;28;1385;-53
2021/07/23 13:44:59;;;;;;;;;;;;;;;;;;5038724;28;1541;-52
2021/07/23 13:47:25;;;;;;;;;;;;;;;;;;5040793;28;1130;-51
2021/07/23 13:49:50;;;;;;;;;;;;;;;;;;5043013;28;1347;-53
2021/07/23 13:52:15;;;;;;;;;;;;;;;;;;5041432;28;1146;-51
2021/07/23 13:54:41;;;;;;;;;;;;;;;;;;5037974;28;1902;-54
2021/07/23 13:57:06;;;;;;;;;;;;;;;;;;5042378;28;1249;-53
2021/07/23 13:59:32;;;;;;;;;;;;;;;;;;5022387;28;1492;-53
2021/07/23 14:01:57;;;;;;;;;;;;;;;;;;5041621;28;1140;-52
2021/07/23 14:04:22;;;;;;;;;;;;;;;;;;5037401;28;1613;-53
2021/07/23 14:06:48;;;;;;;;;;;;;;;;;;5039434;28;1361;-51
2021/07/23 14:09:13;;;;;;;;;;;;;;;;;;5041113;28;1085;-53
2021/07/23 14:11:38;;;;;;;;;;;;;;;;;;5039777;28;1668;-52
2021/07/23 14:14:04;;;;;;;;;;;;;;;;;;5040557;28;1416;-53
2021/07/23 14:16:29;;;;;;;;;;;;;;;;;;5040903;28;1968;-53
2021/07/23 14:18:54;;;;;;;;;;;;;;;;;;5037480;28;1632;-51
2021/07/23 14:21:19;;;;;;;;;;;;;;;;;;5037647;28;1325;-52
2021/07/23 14:23:48;;;;;;;;;;;;;;;;;;5040834;28;1553;-51
2021/07/23 14:26:13;;;;;;;;;;;;;;;;;;5038197;28;1724;-52
2021/07/23 14:28:39;;;;;;;;;;;;;;;;;;5038170;28;1643;-52
2021/07/23 14:31:04;;;;;;;;;;;;;;;;;;5042905;28;1311;-52
2021/07/23 14:33:29;;;;;;;;;;;;;;;;;;5039735;28;1694;-52
2021/07/23 14:35:54;;;;;;;;;;;;;;;;;;5040409;28;1985;-51
2021/07/23 14:38:19;;;;;;;;;;;;;;;;;;5040982;28;1101;-53
2021/07/23 14:40:44;;;;;;;;;;;;;;;;;;5038145;28;1597;-53
2021/07/23 14:43:10;;;;;;;;;;;;;;;;;;5040691;28;1362;-53
2021/07/23 14:45:35;;;;;;;;;;;;;;;;;;5036626;28;1533;-52
2021/07/23 14:48:01;;;;;;;;;;;;;;;;;;5023223;28;1392;-53
2021/07/23 14:50:26;;;;;;;;;;;;;;;;;;5041241;28;1173;-52
2021/07/23 14:52:51;;;;;;;;;;;;;;;;;;5039443;28;1553;-51
2021/07/23 14:55:16;;;;;;;;;;;;;;;;;;5037613;28;1914;-52
2021/07/23 14:57:41;;;;;;;;;;;;;;;;;;5040337;28;1157;-52
2021/07/23 15:00:07;;;;;;;;;;;;;;;;;;5038367;28;1503;-53
2021/07/23 15:02:32;;;;;;;;;;;;;;;;;;5039616;28;1645;-51
2021/07/23 15:04:58;;;;;;;;;;;;;;;;;;5039896;28;1437;-53
2021/07/23 15:07:23;;;;;;;;;;;;;;;;;;5040373;28;1531;-51
2021/07/23 15:09:49;;;;;;;;;;;;;;;;;;5039061;28;1608;-51
2021/07/23 15:12:14;;;;;;;;;;;;;;;;;;5040750;28;1160;-51
2021/07/23 15:14:39;;;;;;;;;;;;;;;;;;5040848;28;1910;-52
2021/07/23 15:17:06;;;;;;;;;;;;;;;;;;5042098;28;1161;-52
2021/07/23 15:19:31;;;;;;;;;;;;;;;;;;5039118;28;1667;-53
2021/07/23 15:22:00;;;;;;;;;;;;;;;;;;5039694;28;1380;-53
2021/07/23 15:24:25;;;;;;;;;;;;;;;;;;5060623;23;1859;-52
2021/07/23 15:26:50;;;;;;;;;;;;;;;;;;5029992;28;1656;-50
2021/07/23 15:29:16;;;;;;;;;;;;;;;;;;5018961;28;1410;-52
2021/07/23 15:31:41;;;;;;;;;;;;;;;;;;5038959;28;1279;-51
2021/07/23 15:34:07;;;;;;;;;;;;;;;;;;5038232;28;1699;-52
2021/07/23 15:36:33;;;;;;;;;;;;;;;;;;5023467;28;1906;-50
2021/07/23 15:38:58;;;;;;;;;;;;;;;;;;5036663;28;1540;-50
2021/07/23 15:41:23;;;;;;;;;;;;;;;;;;5038804;28;1558;-51
2021/07/23 15:43:48;;;;;;;;;;;;;;;;;;5039752;28;1456;-50
2021/07/23 15:46:13;;;;;;;;;;;;;;;;;;5041382;28;1311;-52
2021/07/23 15:48:38;;;;;;;;;;;;;;;;;;5037605;28;1641;-51
2021/07/23 15:51:04;;;;;;;;;;;;;;;;;;5039528;28;1146;-52
2021/07/23 15:53:29;;;;;;;;;;;;;;;;;;5038673;28;1382;-51
2021/07/23 15:55:54;;;;;;;;;;;;;;;;;;5037581;28;1902;-52
2021/07/23 15:58:19;;;;;;;;;;;;;;;;;;5040409;28;1445;-52
2021/07/23 16:00:48;;;;;;;;;;;;;;;;;;5039499;28;2048;-51
2021/07/23 16:03:13;;;;;;;;;;;;;;;;;;5035160;28;1583;-50
2021/07/23 16:05:38;;;;;;;;;;;;;;;;;;5041273;28;1300;-51
2021/07/23 16:08:03;;;;;;;;;;;;;;;;;;5038727;28;1274;-50
2021/07/23 16:10:30;;;;;;;;;;;;;;;;;;5038312;28;1625;-51
2021/07/23 16:12:55;;;;;;;;;;;;;;;;;;5037245;28;1501;-52
2021/07/23 16:15:21;;;;;;;;;;;;;;;;;;5034240;28;1906;-52
2021/07/23 16:17:46;;;;;;;;;;;;;;;;;;5041666;28;971;-52
2021/07/23 16:20:11;;;;;;;;;;;;;;;;;;5039087;28;1137;-52
2021/07/23 16:22:36;;;;;;;;;;;;;;;;;;5035840;28;1486;-52
2021/07/23 16:25:02;;;;;;;;;;;;;;;;;;5037062;28;1688;-52
2021/07/23 16:27:27;;;;;;;;;;;;;;;;;;5038643;28;1421;-52
2021/07/23 16:29:52;;;;;;;;;;;;;;;;;;5041910;28;1057;-51
2021/07/23 16:32:19;;;;;;;;;;;;;;;;;;5038659;28;1097;-51
2021/07/23 16:34:45;;;;;;;;;;;;;;;;;;5035815;28;1910;-52
2021/07/23 16:37:10;;;;;;;;;;;;;;;;;;5040660;28;1180;-52
2021/07/23 16:39:35;;;;;;;;;;;;;;;;;;5038881;28;1275;-51
2021/07/23 16:42:00;;;;;;;;;;;;;;;;;;5038915;28;1731;-50
2021/07/23 16:44:26;;;;;;;;;;;;;;;;;;5039558;28;1404;-50
2021/07/23 16:46:51;;;;;;;;;;;;;;;;;;5040027;28;1118;-51
2021/07/23 16:49:16;;;;;;;;;;;;;;;;;;5037078;28;1517;-51
2021/07/23 16:51:41;;;;;;;;;;;;;;;;;;5038634;28;1145;-51
2021/07/23 16:54:09;;;;;;;;;;;;;;;;;;5038039;28;1377;-52
2021/07/23 16:56:34;;;;;;;;;;;;;;;;;;5037515;28;1976;-52